sensor_id;sensor_type;location;lat;lon;timestamp;temperature;humidity
57088;DHT22;42965;52.846;6.614;2023-05-14T00:00:17;12.40;99.90
57088;DHT22;42965;52.846;6.614;2023-05-14T00:02:44;12.40;99.90
57088;DHT22;42965;52.846;6.614;2023-05-14T00:05:10;12.40;99.90
57088;DHT22;42965;52.846;6.614;2023-05-14T00:07:36;12.30;99.90
57088;DHT22;42965;52.846;6.614;2023-05-14T00:10:02;12.30;99.90
57088;DHT22;42965;52.846;6.614;2023-05-14T00:12:29;12.30;99.90
57088;DHT22;42965;52.846;6.614;2023-05-14T00:14:55;12.20;99.90
57088;DHT22;42965;52.846;6.614;2023-05-14T00:17:21;12.20;99.90
57088;DHT22;42965;52.846;6.614;2023-05-14T00:19:48;12.20;99.90
57088;DHT22;42965;52.846;6.614;2023-05-14T00:22:14;12.20;99.90
57088;DHT22;42965;52.846;6.614;2023-05-14T00:24:40;12.20;99.90
57088;DHT22;42965;52.846;6.614;2023-05-14T00:27:06;12.20;99.90
57088;DHT22;42965;52.846;6.614;2023-05-14T00:29:32;12.20;99.90
57088;DHT22;42965;52.846;6.614;2023-05-14T00:31:59;12.10;99.90
57088;DHT22;42965;52.846;6.614;2023-05-14T00:34:25;12.20;99.90
57088;DHT22;42965;52.846;6.614;2023-05-14T00:36:52;12.20;99.90
57088;DHT22;42965;52.846;6.614;2023-05-14T00:39:18;12.10;99.90
57088;DHT22;42965;52.846;6.614;2023-05-14T00:41:44;12.10;99.90
57088;DHT22;42965;52.846;6.614;2023-05-14T00:44:11;12.10;99.90
57088;DHT22;42965;52.846;6.614;2023-05-14T00:46:37;12.10;99.90
57088;DHT22;42965;52.846;6.614;2023-05-14T00:49:03;12.00;99.90
57088;DHT22;42965;52.846;6.614;2023-05-14T00:51:30;12.10;99.90
57088;DHT22;42965;52.846;6.614;2023-05-14T00:53:56;12.10;99.90
57088;DHT22;42965;52.846;6.614;2023-05-14T00:56:23;12.10;99.90
57088;DHT22;42965;52.846;6.614;2023-05-14T00:58:52;12.00;99.90
57088;DHT22;42965;52.846;6.614;2023-05-14T01:01:18;12.00;99.90
57088;DHT22;42965;52.846;6.614;2023-05-14T01:03:45;12.00;99.90
57088;DHT22;42965;52.846;6.614;2023-05-14T01:06:25;12.00;99.90
57088;DHT22;42965;52.846;6.614;2023-05-14T01:09:04;12.00;99.90
57088;DHT22;42965;52.846;6.614;2023-05-14T01:15:14;11.90;99.90
57088;DHT22;42965;52.846;6.614;2023-05-14T01:17:55;11.90;99.90
57088;DHT22;42965;52.846;6.614;2023-05-14T01:20:25;11.90;99.90
57088;DHT22;42965;52.846;6.614;2023-05-14T01:22:52;11.80;99.90
57088;DHT22;42965;52.846;6.614;2023-05-14T01:25:18;11.80;99.90
57088;DHT22;42965;52.846;6.614;2023-05-14T01:30:35;11.70;99.90
57088;DHT22;42965;52.846;6.614;2023-05-14T01:33:05;11.70;99.90
57088;DHT22;42965;52.846;6.614;2023-05-14T01:35:32;11.60;99.90
57088;DHT22;42965;52.846;6.614;2023-05-14T01:38:01;11.60;99.90
57088;DHT22;42965;52.846;6.614;2023-05-14T01:40:28;11.60;99.90
57088;DHT22;42965;52.846;6.614;2023-05-14T01:42:56;11.60;99.90
57088;DHT22;42965;52.846;6.614;2023-05-14T01:45:23;11.50;99.90
57088;DHT22;42965;52.846;6.614;2023-05-14T01:47:50;11.50;99.90
57088;DHT22;42965;52.846;6.614;2023-05-14T01:50:18;11.40;99.90
57088;DHT22;42965;52.846;6.614;2023-05-14T01:52:44;11.40;99.90
57088;DHT22;42965;52.846;6.614;2023-05-14T01:55:10;11.30;99.90
57088;DHT22;42965;52.846;6.614;2023-05-14T01:57:39;11.30;99.90
57088;DHT22;42965;52.846;6.614;2023-05-14T02:00:06;11.20;99.90
57088;DHT22;42965;52.846;6.614;2023-05-14T02:02:39;11.20;99.90
57088;DHT22;42965;52.846;6.614;2023-05-14T02:05:09;11.20;99.90
57088;DHT22;42965;52.846;6.614;2023-05-14T02:07:35;11.20;99.90
57088;DHT22;42965;52.846;6.614;2023-05-14T02:10:01;11.20;99.90
57088;DHT22;42965;52.846;6.614;2023-05-14T02:12:28;11.10;99.90
57088;DHT22;42965;52.846;6.614;2023-05-14T02:14:54;11.10;99.90
57088;DHT22;42965;52.846;6.614;2023-05-14T02:17:21;11.10;99.90
57088;DHT22;42965;52.846;6.614;2023-05-14T02:19:47;11.10;99.90
57088;DHT22;42965;52.846;6.614;2023-05-14T02:22:13;11.10;99.90
57088;DHT22;42965;52.846;6.614;2023-05-14T02:24:40;11.10;99.90
57088;DHT22;42965;52.846;6.614;2023-05-14T02:27:06;11.10;99.90
57088;DHT22;42965;52.846;6.614;2023-05-14T02:29:32;11.10;99.90
57088;DHT22;42965;52.846;6.614;2023-05-14T02:31:58;11.10;99.90
57088;DHT22;42965;52.846;6.614;2023-05-14T02:34:25;11.10;99.90
57088;DHT22;42965;52.846;6.614;2023-05-14T02:36:51;11.10;99.90
57088;DHT22;42965;52.846;6.614;2023-05-14T02:39:18;11.10;99.90
57088;DHT22;42965;52.846;6.614;2023-05-14T02:41:45;11.10;99.90
57088;DHT22;42965;52.846;6.614;2023-05-14T02:44:11;11.10;99.90
57088;DHT22;42965;52.846;6.614;2023-05-14T02:46:37;11.10;99.90
57088;DHT22;42965;52.846;6.614;2023-05-14T02:49:04;11.10;99.90
57088;DHT22;42965;52.846;6.614;2023-05-14T02:51:30;11.00;99.90
57088;DHT22;42965;52.846;6.614;2023-05-14T02:53:56;11.00;99.90
57088;DHT22;42965;52.846;6.614;2023-05-14T02:56:22;11.00;99.90
57088;DHT22;42965;52.846;6.614;2023-05-14T02:58:48;10.90;99.90
57088;DHT22;42965;52.846;6.614;2023-05-14T03:01:15;10.90;99.90
57088;DHT22;42965;52.846;6.614;2023-05-14T03:03:43;10.80;99.90
57088;DHT22;42965;52.846;6.614;2023-05-14T03:06:10;10.80;99.90
57088;DHT22;42965;52.846;6.614;2023-05-14T03:08:36;10.80;99.90
57088;DHT22;42965;52.846;6.614;2023-05-14T03:11:02;10.80;99.90
57088;DHT22;42965;52.846;6.614;2023-05-14T03:13:28;10.80;99.90
57088;DHT22;42965;52.846;6.614;2023-05-14T03:15:54;10.70;99.90
57088;DHT22;42965;52.846;6.614;2023-05-14T03:18:24;10.80;99.90
57088;DHT22;42965;52.846;6.614;2023-05-14T03:20:53;10.80;99.90
57088;DHT22;42965;52.846;6.614;2023-05-14T03:23:19;10.80;99.90
57088;DHT22;42965;52.846;6.614;2023-05-14T03:25:45;10.80;99.90
57088;DHT22;42965;52.846;6.614;2023-05-14T03:28:11;10.80;99.90
57088;DHT22;42965;52.846;6.614;2023-05-14T03:30:37;10.80;99.90
57088;DHT22;42965;52.846;6.614;2023-05-14T03:33:04;10.80;99.90
57088;DHT22;42965;52.846;6.614;2023-05-14T03:35:30;10.80;99.90
57088;DHT22;42965;52.846;6.614;2023-05-14T03:37:56;10.80;99.90
57088;DHT22;42965;52.846;6.614;2023-05-14T03:40:25;10.80;99.90
57088;DHT22;42965;52.846;6.614;2023-05-14T03:42:51;10.70;99.90
57088;DHT22;42965;52.846;6.614;2023-05-14T03:45:17;10.70;99.90
57088;DHT22;42965;52.846;6.614;2023-05-14T03:47:44;10.70;99.90
57088;DHT22;42965;52.846;6.614;2023-05-14T03:50:10;10.70;99.90
57088;DHT22;42965;52.846;6.614;2023-05-14T03:52:37;10.60;99.90
57088;DHT22;42965;52.846;6.614;2023-05-14T03:55:03;10.60;99.90
57088;DHT22;42965;52.846;6.614;2023-05-14T03:57:29;10.60;99.90
57088;DHT22;42965;52.846;6.614;2023-05-14T03:59:55;10.60;99.90
57088;DHT22;42965;52.846;6.614;2023-05-14T04:02:22;10.60;99.90
57088;DHT22;42965;52.846;6.614;2023-05-14T04:04:48;10.60;99.90
57088;DHT22;42965;52.846;6.614;2023-05-14T04:07:17;10.60;99.90
57088;DHT22;42965;52.846;6.614;2023-05-14T04:09:43;10.60;99.90
57088;DHT22;42965;52.846;6.614;2023-05-14T04:12:11;10.50;99.90
57088;DHT22;42965;52.846;6.614;2023-05-14T04:14:37;10.60;99.90
57088;DHT22;42965;52.846;6.614;2023-05-14T04:17:03;10.60;99.90
57088;DHT22;42965;52.846;6.614;2023-05-14T04:19:30;10.60;99.90
57088;DHT22;42965;52.846;6.614;2023-05-14T04:21:56;10.60;99.90
57088;DHT22;42965;52.846;6.614;2023-05-14T04:24:22;10.60;99.90
57088;DHT22;42965;52.846;6.614;2023-05-14T04:26:48;10.70;99.90
57088;DHT22;42965;52.846;6.614;2023-05-14T04:29:14;10.70;99.90
57088;DHT22;42965;52.846;6.614;2023-05-14T04:31:40;10.70;99.90
57088;DHT22;42965;52.846;6.614;2023-05-14T04:34:08;10.80;99.90
57088;DHT22;42965;52.846;6.614;2023-05-14T04:36:34;10.80;99.90
57088;DHT22;42965;52.846;6.614;2023-05-14T04:39:00;10.90;99.90
57088;DHT22;42965;52.846;6.614;2023-05-14T04:41:27;10.90;99.90
57088;DHT22;42965;52.846;6.614;2023-05-14T04:43:55;10.90;99.90
57088;DHT22;42965;52.846;6.614;2023-05-14T04:46:21;11.00;99.90
57088;DHT22;42965;52.846;6.614;2023-05-14T04:48:48;11.00;99.90
57088;DHT22;42965;52.846;6.614;2023-05-14T04:51:15;11.10;99.90
57088;DHT22;42965;52.846;6.614;2023-05-14T04:53:41;11.20;99.90
57088;DHT22;42965;52.846;6.614;2023-05-14T04:56:07;11.20;99.90
57088;DHT22;42965;52.846;6.614;2023-05-14T04:58:33;11.30;99.90
57088;DHT22;42965;52.846;6.614;2023-05-14T05:01:00;11.30;99.90
57088;DHT22;42965;52.846;6.614;2023-05-14T05:03:27;11.40;99.90
57088;DHT22;42965;52.846;6.614;2023-05-14T05:05:53;11.40;99.90
57088;DHT22;42965;52.846;6.614;2023-05-14T05:08:19;11.50;99.90
57088;DHT22;42965;52.846;6.614;2023-05-14T05:10:46;11.60;99.90
57088;DHT22;42965;52.846;6.614;2023-05-14T05:13:13;11.70;99.90
57088;DHT22;42965;52.846;6.614;2023-05-14T05:15:40;11.80;99.90
57088;DHT22;42965;52.846;6.614;2023-05-14T05:18:06;12.00;99.90
57088;DHT22;42965;52.846;6.614;2023-05-14T05:20:32;12.10;99.90
57088;DHT22;42965;52.846;6.614;2023-05-14T05:22:58;12.20;99.90
57088;DHT22;42965;52.846;6.614;2023-05-14T05:25:25;12.40;99.90
57088;DHT22;42965;52.846;6.614;2023-05-14T05:27:51;12.50;99.90
57088;DHT22;42965;52.846;6.614;2023-05-14T05:30:17;12.40;99.90
57088;DHT22;42965;52.846;6.614;2023-05-14T05:32:46;12.40;99.90
57088;DHT22;42965;52.846;6.614;2023-05-14T05:35:13;12.40;99.90
57088;DHT22;42965;52.846;6.614;2023-05-14T05:37:41;12.40;99.90
57088;DHT22;42965;52.846;6.614;2023-05-14T05:40:07;12.40;99.90
57088;DHT22;42965;52.846;6.614;2023-05-14T05:42:35;12.60;99.90
57088;DHT22;42965;52.846;6.614;2023-05-14T05:45:02;12.70;99.90
57088;DHT22;42965;52.846;6.614;2023-05-14T05:47:31;12.80;99.90
57088;DHT22;42965;52.846;6.614;2023-05-14T05:49:57;12.80;99.90
57088;DHT22;42965;52.846;6.614;2023-05-14T05:52:23;12.90;99.90
57088;DHT22;42965;52.846;6.614;2023-05-14T05:54:50;13.00;99.90
57088;DHT22;42965;52.846;6.614;2023-05-14T05:57:17;13.20;99.90
57088;DHT22;42965;52.846;6.614;2023-05-14T05:59:43;13.40;99.90
57088;DHT22;42965;52.846;6.614;2023-05-14T06:02:09;13.80;99.90
57088;DHT22;42965;52.846;6.614;2023-05-14T06:04:38;14.00;99.90
57088;DHT22;42965;52.846;6.614;2023-05-14T06:07:04;14.30;99.90
57088;DHT22;42965;52.846;6.614;2023-05-14T06:09:31;14.50;99.90
57088;DHT22;42965;52.846;6.614;2023-05-14T06:11:57;14.60;99.90
57088;DHT22;42965;52.846;6.614;2023-05-14T06:14:23;14.70;99.90
57088;DHT22;42965;52.846;6.614;2023-05-14T06:16:50;14.90;99.90
57088;DHT22;42965;52.846;6.614;2023-05-14T06:19:16;14.90;99.90
57088;DHT22;42965;52.846;6.614;2023-05-14T06:21:42;15.20;99.90
57088;DHT22;42965;52.846;6.614;2023-05-14T06:24:09;15.10;99.90
57088;DHT22;42965;52.846;6.614;2023-05-14T06:26:35;15.30;99.90
57088;DHT22;42965;52.846;6.614;2023-05-14T06:29:02;15.50;99.90
57088;DHT22;42965;52.846;6.614;2023-05-14T06:31:28;15.60;99.90
57088;DHT22;42965;52.846;6.614;2023-05-14T06:33:54;15.70;99.90
57088;DHT22;42965;52.846;6.614;2023-05-14T06:36:21;15.80;99.90
57088;DHT22;42965;52.846;6.614;2023-05-14T06:38:47;16.10;99.90
57088;DHT22;42965;52.846;6.614;2023-05-14T06:41:13;16.10;99.90
57088;DHT22;42965;52.846;6.614;2023-05-14T06:43:40;16.20;99.90
57088;DHT22;42965;52.846;6.614;2023-05-14T06:46:06;16.50;99.90
57088;DHT22;42965;52.846;6.614;2023-05-14T06:48:32;16.70;99.90
57088;DHT22;42965;52.846;6.614;2023-05-14T06:50:59;17.00;99.90
57088;DHT22;42965;52.846;6.614;2023-05-14T06:53:25;16.90;99.90
57088;DHT22;42965;52.846;6.614;2023-05-14T06:55:51;17.20;99.90
57088;DHT22;42965;52.846;6.614;2023-05-14T06:58:17;17.50;99.90
57088;DHT22;42965;52.846;6.614;2023-05-14T07:00:43;17.80;99.90
57088;DHT22;42965;52.846;6.614;2023-05-14T07:03:09;17.90;99.90
57088;DHT22;42965;52.846;6.614;2023-05-14T07:05:36;18.00;99.90
57088;DHT22;42965;52.846;6.614;2023-05-14T07:08:02;18.30;99.90
57088;DHT22;42965;52.846;6.614;2023-05-14T07:10:29;18.40;99.90
57088;DHT22;42965;52.846;6.614;2023-05-14T07:12:55;18.40;99.90
57088;DHT22;42965;52.846;6.614;2023-05-14T07:15:22;18.50;99.90
57088;DHT22;42965;52.846;6.614;2023-05-14T07:17:48;18.70;99.90
57088;DHT22;42965;52.846;6.614;2023-05-14T07:20:14;18.90;99.90
57088;DHT22;42965;52.846;6.614;2023-05-14T07:22:40;19.10;99.90
57088;DHT22;42965;52.846;6.614;2023-05-14T07:25:07;19.10;99.90
57088;DHT22;42965;52.846;6.614;2023-05-14T07:27:33;19.20;99.90
57088;DHT22;42965;52.846;6.614;2023-05-14T07:29:59;19.30;99.90
57088;DHT22;42965;52.846;6.614;2023-05-14T07:32:25;19.40;99.90
57088;DHT22;42965;52.846;6.614;2023-05-14T07:34:51;19.40;99.90
57088;DHT22;42965;52.846;6.614;2023-05-14T07:37:18;19.60;99.90
57088;DHT22;42965;52.846;6.614;2023-05-14T07:39:44;19.50;99.90
57088;DHT22;42965;52.846;6.614;2023-05-14T07:42:10;19.80;99.90
57088;DHT22;42965;52.846;6.614;2023-05-14T07:44:37;19.70;99.90
57088;DHT22;42965;52.846;6.614;2023-05-14T07:47:03;20.00;99.90
57088;DHT22;42965;52.846;6.614;2023-05-14T07:49:31;19.80;99.90
57088;DHT22;42965;52.846;6.614;2023-05-14T07:51:57;20.40;99.90
57088;DHT22;42965;52.846;6.614;2023-05-14T07:54:24;20.60;99.90
57088;DHT22;42965;52.846;6.614;2023-05-14T07:56:53;20.90;99.90
57088;DHT22;42965;52.846;6.614;2023-05-14T07:59:19;20.90;99.90
57088;DHT22;42965;52.846;6.614;2023-05-14T08:01:49;20.80;99.90
57088;DHT22;42965;52.846;6.614;2023-05-14T08:04:15;21.20;99.90
57088;DHT22;42965;52.846;6.614;2023-05-14T08:06:42;21.30;99.90
57088;DHT22;42965;52.846;6.614;2023-05-14T08:09:08;21.40;99.90
57088;DHT22;42965;52.846;6.614;2023-05-14T08:11:35;21.30;99.90
57088;DHT22;42965;52.846;6.614;2023-05-14T08:14:01;21.00;99.90
57088;DHT22;42965;52.846;6.614;2023-05-14T08:16:27;21.20;99.90
57088;DHT22;42965;52.846;6.614;2023-05-14T08:18:54;21.00;99.90
57088;DHT22;42965;52.846;6.614;2023-05-14T08:21:20;21.10;99.90
57088;DHT22;42965;52.846;6.614;2023-05-14T08:23:47;21.60;99.90
57088;DHT22;42965;52.846;6.614;2023-05-14T08:26:13;21.50;99.90
57088;DHT22;42965;52.846;6.614;2023-05-14T08:28:39;21.70;99.90
57088;DHT22;42965;52.846;6.614;2023-05-14T08:31:05;22.20;99.90
57088;DHT22;42965;52.846;6.614;2023-05-14T08:33:31;22.10;99.90
57088;DHT22;42965;52.846;6.614;2023-05-14T08:35:57;22.00;99.90
57088;DHT22;42965;52.846;6.614;2023-05-14T08:38:25;21.90;99.90
57088;DHT22;42965;52.846;6.614;2023-05-14T08:41:00;22.10;99.90
57088;DHT22;42965;52.846;6.614;2023-05-14T08:43:31;22.20;99.90
57088;DHT22;42965;52.846;6.614;2023-05-14T08:46:04;22.30;99.90
57088;DHT22;42965;52.846;6.614;2023-05-14T08:48:32;22.10;99.90
57088;DHT22;42965;52.846;6.614;2023-05-14T08:50:59;22.00;98.00
57088;DHT22;42965;52.846;6.614;2023-05-14T08:53:26;22.10;99.80
57088;DHT22;42965;52.846;6.614;2023-05-14T08:55:53;22.00;99.90
57088;DHT22;42965;52.846;6.614;2023-05-14T08:58:19;22.00;99.90
57088;DHT22;42965;52.846;6.614;2023-05-14T09:00:46;21.80;99.90
57088;DHT22;42965;52.846;6.614;2023-05-14T09:03:13;22.00;99.90
57088;DHT22;42965;52.846;6.614;2023-05-14T09:05:40;22.10;99.90
57088;DHT22;42965;52.846;6.614;2023-05-14T09:08:06;22.30;99.90
57088;DHT22;42965;52.846;6.614;2023-05-14T09:10:32;22.20;99.90
57088;DHT22;42965;52.846;6.614;2023-05-14T09:12:58;22.30;99.90
57088;DHT22;42965;52.846;6.614;2023-05-14T09:15:26;22.70;99.90
57088;DHT22;42965;52.846;6.614;2023-05-14T09:17:54;22.70;99.90
57088;DHT22;42965;52.846;6.614;2023-05-14T09:20:21;22.70;99.90
57088;DHT22;42965;52.846;6.614;2023-05-14T09:22:52;22.50;99.90
57088;DHT22;42965;52.846;6.614;2023-05-14T09:25:19;22.70;99.90
57088;DHT22;42965;52.846;6.614;2023-05-14T09:27:46;22.60;99.90
57088;DHT22;42965;52.846;6.614;2023-05-14T09:30:16;22.80;99.90
57088;DHT22;42965;52.846;6.614;2023-05-14T09:32:43;23.00;99.90
57088;DHT22;42965;52.846;6.614;2023-05-14T09:35:18;23.10;99.90
57088;DHT22;42965;52.846;6.614;2023-05-14T09:37:47;23.20;96.70
57088;DHT22;42965;52.846;6.614;2023-05-14T09:40:14;23.40;92.50
57088;DHT22;42965;52.846;6.614;2023-05-14T09:42:41;23.80;93.30
57088;DHT22;42965;52.846;6.614;2023-05-14T09:45:10;23.90;91.00
57088;DHT22;42965;52.846;6.614;2023-05-14T09:47:37;23.90;89.60
57088;DHT22;42965;52.846;6.614;2023-05-14T09:50:05;24.10;86.10
57088;DHT22;42965;52.846;6.614;2023-05-14T09:52:31;23.80;78.50
57088;DHT22;42965;52.846;6.614;2023-05-14T09:54:59;24.10;77.40
57088;DHT22;42965;52.846;6.614;2023-05-14T09:57:25;24.50;73.20
57088;DHT22;42965;52.846;6.614;2023-05-14T09:59:52;24.90;66.60
57088;DHT22;42965;52.846;6.614;2023-05-14T10:02:29;25.00;64.10
57088;DHT22;42965;52.846;6.614;2023-05-14T10:04:59;25.30;64.10
57088;DHT22;42965;52.846;6.614;2023-05-14T10:07:33;25.30;65.20
57088;DHT22;42965;52.846;6.614;2023-05-14T10:10:02;25.60;63.80
57088;DHT22;42965;52.846;6.614;2023-05-14T10:12:33;25.90;64.90
57088;DHT22;42965;52.846;6.614;2023-05-14T10:15:18;25.90;66.00
57088;DHT22;42965;52.846;6.614;2023-05-14T10:17:48;26.40;64.30
57088;DHT22;42965;52.846;6.614;2023-05-14T10:20:18;26.70;62.30
57088;DHT22;42965;52.846;6.614;2023-05-14T10:22:46;26.70;60.00
57088;DHT22;42965;52.846;6.614;2023-05-14T10:25:12;26.60;59.00
57088;DHT22;42965;52.846;6.614;2023-05-14T10:27:39;26.80;57.20
57088;DHT22;42965;52.846;6.614;2023-05-14T10:30:10;26.80;57.50
57088;DHT22;42965;52.846;6.614;2023-05-14T10:32:39;27.00;55.40
57088;DHT22;42965;52.846;6.614;2023-05-14T10:35:16;27.20;55.50
57088;DHT22;42965;52.846;6.614;2023-05-14T10:37:43;27.60;53.70
57088;DHT22;42965;52.846;6.614;2023-05-14T10:40:11;27.50;54.50
57088;DHT22;42965;52.846;6.614;2023-05-14T10:42:38;27.80;52.80
57088;DHT22;42965;52.846;6.614;2023-05-14T10:45:07;27.80;52.20
57088;DHT22;42965;52.846;6.614;2023-05-14T10:47:42;27.50;51.40
57088;DHT22;42965;52.846;6.614;2023-05-14T10:50:11;27.80;51.60
57088;DHT22;42965;52.846;6.614;2023-05-14T10:52:43;27.50;50.90
57088;DHT22;42965;52.846;6.614;2023-05-14T10:55:13;27.60;51.10
57088;DHT22;42965;52.846;6.614;2023-05-14T10:57:43;27.50;52.50
57088;DHT22;42965;52.846;6.614;2023-05-14T11:00:10;27.30;52.30
57088;DHT22;42965;52.846;6.614;2023-05-14T11:02:38;27.50;52.00
57088;DHT22;42965;52.846;6.614;2023-05-14T11:05:07;27.40;51.40
57088;DHT22;42965;52.846;6.614;2023-05-14T11:07:38;27.50;51.60
57088;DHT22;42965;52.846;6.614;2023-05-14T11:10:11;27.90;51.40
57088;DHT22;42965;52.846;6.614;2023-05-14T11:12:40;27.80;51.60
57088;DHT22;42965;52.846;6.614;2023-05-14T11:15:08;27.80;50.40
57088;DHT22;42965;52.846;6.614;2023-05-14T11:17:36;27.70;50.20
57088;DHT22;42965;52.846;6.614;2023-05-14T11:20:03;27.90;49.30
57088;DHT22;42965;52.846;6.614;2023-05-14T11:22:33;28.00;49.00
57088;DHT22;42965;52.846;6.614;2023-05-14T11:25:00;27.70;49.30
57088;DHT22;42965;52.846;6.614;2023-05-14T11:27:26;27.40;49.70
57088;DHT22;42965;52.846;6.614;2023-05-14T11:29:53;27.30;49.80
57088;DHT22;42965;52.846;6.614;2023-05-14T11:32:21;27.80;48.40
57088;DHT22;42965;52.846;6.614;2023-05-14T11:34:47;27.80;49.30
57088;DHT22;42965;52.846;6.614;2023-05-14T11:37:14;27.90;47.50
57088;DHT22;42965;52.846;6.614;2023-05-14T11:39:49;28.10;46.70
57088;DHT22;42965;52.846;6.614;2023-05-14T11:42:15;28.20;47.30
57088;DHT22;42965;52.846;6.614;2023-05-14T11:44:47;28.40;47.00
57088;DHT22;42965;52.846;6.614;2023-05-14T11:47:15;28.50;45.40
57088;DHT22;42965;52.846;6.614;2023-05-14T11:49:42;28.60;45.70
57088;DHT22;42965;52.846;6.614;2023-05-14T11:52:09;28.10;46.50
57088;DHT22;42965;52.846;6.614;2023-05-14T11:54:36;28.40;46.10
57088;DHT22;42965;52.846;6.614;2023-05-14T11:57:20;28.60;45.00
57088;DHT22;42965;52.846;6.614;2023-05-14T11:59:54;28.70;43.50
57088;DHT22;42965;52.846;6.614;2023-05-14T12:02:47;28.50;43.70
57088;DHT22;42965;52.846;6.614;2023-05-14T12:05:14;29.00;44.00
57088;DHT22;42965;52.846;6.614;2023-05-14T12:07:43;29.40;43.80
57088;DHT22;42965;52.846;6.614;2023-05-14T12:10:11;29.40;41.20
57088;DHT22;42965;52.846;6.614;2023-05-14T12:12:38;29.20;41.00
57088;DHT22;42965;52.846;6.614;2023-05-14T12:15:12;28.50;41.70
57088;DHT22;42965;52.846;6.614;2023-05-14T12:17:38;28.70;43.30
57088;DHT22;42965;52.846;6.614;2023-05-14T12:20:07;28.70;42.90
57088;DHT22;42965;52.846;6.614;2023-05-14T12:22:35;28.60;42.20
57088;DHT22;42965;52.846;6.614;2023-05-14T12:25:01;27.70;41.20
57088;DHT22;42965;52.846;6.614;2023-05-14T12:27:28;27.90;42.40
57088;DHT22;42965;52.846;6.614;2023-05-14T12:29:59;27.80;41.80
57088;DHT22;42965;52.846;6.614;2023-05-14T12:32:31;27.70;40.50
57088;DHT22;42965;52.846;6.614;2023-05-14T12:34:58;27.50;41.50
57088;DHT22;42965;52.846;6.614;2023-05-14T12:37:24;27.60;41.80
57088;DHT22;42965;52.846;6.614;2023-05-14T12:39:51;28.30;40.70
57088;DHT22;42965;52.846;6.614;2023-05-14T12:42:17;28.60;41.00
57088;DHT22;42965;52.846;6.614;2023-05-14T12:44:43;29.20;39.60
57088;DHT22;42965;52.846;6.614;2023-05-14T12:47:12;29.00;38.80
57088;DHT22;42965;52.846;6.614;2023-05-14T12:49:39;28.30;39.40
57088;DHT22;42965;52.846;6.614;2023-05-14T12:52:05;28.40;40.70
57088;DHT22;42965;52.846;6.614;2023-05-14T12:54:32;28.00;41.60
57088;DHT22;42965;52.846;6.614;2023-05-14T12:56:59;27.70;40.90
57088;DHT22;42965;52.846;6.614;2023-05-14T12:59:25;27.50;41.60
57088;DHT22;42965;52.846;6.614;2023-05-14T13:01:51;27.40;43.00
57088;DHT22;42965;52.846;6.614;2023-05-14T13:04:17;27.10;43.00
57088;DHT22;42965;52.846;6.614;2023-05-14T13:06:43;26.80;43.40
57088;DHT22;42965;52.846;6.614;2023-05-14T13:09:09;26.60;43.40
57088;DHT22;42965;52.846;6.614;2023-05-14T13:11:36;26.50;43.10
57088;DHT22;42965;52.846;6.614;2023-05-14T13:14:02;26.20;44.10
57088;DHT22;42965;52.846;6.614;2023-05-14T13:16:29;26.10;42.30
57088;DHT22;42965;52.846;6.614;2023-05-14T13:18:55;25.90;43.10
57088;DHT22;42965;52.846;6.614;2023-05-14T13:21:21;25.90;44.00
57088;DHT22;42965;52.846;6.614;2023-05-14T13:23:47;25.80;44.20
57088;DHT22;42965;52.846;6.614;2023-05-14T13:26:14;25.90;43.60
57088;DHT22;42965;52.846;6.614;2023-05-14T13:28:41;25.80;43.60
57088;DHT22;42965;52.846;6.614;2023-05-14T13:31:10;25.90;43.70
57088;DHT22;42965;52.846;6.614;2023-05-14T13:33:41;26.00;42.70
57088;DHT22;42965;52.846;6.614;2023-05-14T13:36:08;26.10;42.80
57088;DHT22;42965;52.846;6.614;2023-05-14T13:38:35;26.10;42.50
57088;DHT22;42965;52.846;6.614;2023-05-14T13:41:01;26.40;41.90
57088;DHT22;42965;52.846;6.614;2023-05-14T13:43:32;26.70;41.70
57088;DHT22;42965;52.846;6.614;2023-05-14T13:45:59;26.90;41.20
57088;DHT22;42965;52.846;6.614;2023-05-14T13:48:26;27.00;41.40
57088;DHT22;42965;52.846;6.614;2023-05-14T13:50:53;26.90;40.80
57088;DHT22;42965;52.846;6.614;2023-05-14T13:53:21;27.10;40.90
57088;DHT22;42965;52.846;6.614;2023-05-14T13:55:49;27.20;40.00
57088;DHT22;42965;52.846;6.614;2023-05-14T13:58:15;27.20;40.70
57088;DHT22;42965;52.846;6.614;2023-05-14T14:00:41;27.00;39.10
57088;DHT22;42965;52.846;6.614;2023-05-14T14:03:08;27.20;39.40
57088;DHT22;42965;52.846;6.614;2023-05-14T14:05:34;27.00;39.40
57088;DHT22;42965;52.846;6.614;2023-05-14T14:08:01;27.30;39.30
57088;DHT22;42965;52.846;6.614;2023-05-14T14:10:27;26.90;38.40
57088;DHT22;42965;52.846;6.614;2023-05-14T14:12:54;27.00;39.00
57088;DHT22;42965;52.846;6.614;2023-05-14T14:15:20;27.10;41.00
57088;DHT22;42965;52.846;6.614;2023-05-14T14:17:46;27.20;39.90
57088;DHT22;42965;52.846;6.614;2023-05-14T14:20:13;27.30;39.20
57088;DHT22;42965;52.846;6.614;2023-05-14T14:22:41;27.20;39.80
57088;DHT22;42965;52.846;6.614;2023-05-14T14:25:08;27.10;40.40
57088;DHT22;42965;52.846;6.614;2023-05-14T14:27:35;27.10;41.20
57088;DHT22;42965;52.846;6.614;2023-05-14T14:30:06;26.90;41.20
57088;DHT22;42965;52.846;6.614;2023-05-14T14:32:32;26.70;40.80
57088;DHT22;42965;52.846;6.614;2023-05-14T14:34:59;26.60;39.90
57088;DHT22;42965;52.846;6.614;2023-05-14T14:37:25;26.50;40.40
57088;DHT22;42965;52.846;6.614;2023-05-14T14:39:52;26.40;40.60
57088;DHT22;42965;52.846;6.614;2023-05-14T14:42:18;26.40;42.00
57088;DHT22;42965;52.846;6.614;2023-05-14T14:44:44;26.20;41.80
57088;DHT22;42965;52.846;6.614;2023-05-14T14:47:10;26.30;41.30
57088;DHT22;42965;52.846;6.614;2023-05-14T14:49:36;26.30;41.50
57088;DHT22;42965;52.846;6.614;2023-05-14T14:52:03;26.00;41.50
57088;DHT22;42965;52.846;6.614;2023-05-14T14:54:29;26.00;40.80
57088;DHT22;42965;52.846;6.614;2023-05-14T14:56:56;25.90;41.30
57088;DHT22;42965;52.846;6.614;2023-05-14T14:59:22;25.70;41.20
57088;DHT22;42965;52.846;6.614;2023-05-14T15:01:49;25.70;41.30
57088;DHT22;42965;52.846;6.614;2023-05-14T15:04:15;25.80;41.50
57088;DHT22;42965;52.846;6.614;2023-05-14T15:06:41;25.70;41.30
57088;DHT22;42965;52.846;6.614;2023-05-14T15:09:07;25.80;41.50
57088;DHT22;42965;52.846;6.614;2023-05-14T15:11:34;25.70;41.10
57088;DHT22;42965;52.846;6.614;2023-05-14T15:14:00;25.80;41.20
57088;DHT22;42965;52.846;6.614;2023-05-14T15:16:26;25.80;41.60
57088;DHT22;42965;52.846;6.614;2023-05-14T15:18:52;25.60;40.80
57088;DHT22;42965;52.846;6.614;2023-05-14T15:21:19;25.70;41.30
57088;DHT22;42965;52.846;6.614;2023-05-14T15:23:45;25.50;40.20
57088;DHT22;42965;52.846;6.614;2023-05-14T15:26:11;25.30;43.20
57088;DHT22;42965;52.846;6.614;2023-05-14T15:28:37;25.40;43.80
57088;DHT22;42965;52.846;6.614;2023-05-14T15:31:04;25.40;44.10
57088;DHT22;42965;52.846;6.614;2023-05-14T15:33:31;25.20;42.20
57088;DHT22;42965;52.846;6.614;2023-05-14T15:35:58;25.30;42.00